Portada
METAR-TAF:

METAR-TAF

Aeroports :

Nouméa, Nova Caledònia

latitud: 22-15-30S, longitud: 166-28-22E, altitud: 3 m

METAR: manca

Hora: 23:23 (12:23 UTC)

Pronòstic

L'informe es va fer fa 19 hores i 23 minuts, a les 17:00 UTC
Pronòstic vàlid del 20 a les 18 UTC al 21 a les 18 UTC
Vent 10 kt del Est/Nord-Est
Visibilitat 10 km o més
Escasses núvols a una alçada de 5000 ft
Evolucionant progressivament
l' 20 a les 23 UTC al 21 a les 02 UTC
Vent 18 kt del Sud-Est
Evolucionant progressivament
l' 21 a les 06 UTC al 21 a les 09 UTC
Vent 8 kt del Est
Probabilitat 40% :
Temporalment
l' 21 a les 14 UTC al 21 a les 18 UTC
Cel ennuvolat a una alçada de 1200 ft
xàfecs de pluja

TAF: NWWM 201700Z 2018/2118 07010KT 9999 FEW050 BECMG 2023/2102 13018KT BECMG 2106/2109 09008KT PROB40 TEMPO 2114/2118 SHRA BKN012

Observacions i pronòstics meteorològics de més de 4000 aeroports (METAR i TAF).

Les estacions disponibles són els punts grocs i vermells al mapa.

Posi el ratolí al punt desitjat per veure el nom de l'estació.

Feu clic per veure les observacions i els pronòstics meteorològics.

Per canviar el mapa: feu clic els botons verds amb una creu de color negre per apropar; al botó verd amb un guió per allunyar la imatge; o en les fletxes verdes per a mapes adjacents.


METAR-TAF: